Time;durP1;ratioP1;P1;durP2;ratioP2;P2;SDS_P1;SDS_P2;PMS_P1;PMS_P2;Temp;Humidity;BMP_temperature;BMP_pressure;BME280_temperature;BME280_humidity;BME280_pressure;Samples;Min_cycle;Max_cycle;Signal;HPM_P1;HPM_P2
2023/08/30 00:01:34;;;;;;;12.88;10.38;;;;;;;10.91;100.00;100878.47;5062868;28;20020;-75
2023/08/30 00:03:59;;;;;;;13.00;10.90;;;;;;;10.89;100.00;100863.75;5070588;28;20104;-75
2023/08/30 00:06:25;;;;;;;12.32;10.38;;;;;;;10.94;100.00;100875.78;5072718;28;20039;-75
2023/08/30 00:08:51;;;;;;;13.77;10.75;;;;;;;10.91;100.00;100878.47;5070220;28;20035;-75
2023/08/30 00:11:16;;;;;;;15.32;11.00;;;;;;;10.90;100.00;100870.69;5073268;28;20052;-75
2023/08/30 00:13:42;;;;;;;12.90;11.05;;;;;;;10.85;100.00;100873.41;5067142;28;20040;-74
2023/08/30 00:16:07;;;;;;;13.57;10.20;;;;;;;10.85;100.00;100857.75;5060563;28;20032;-75
2023/08/30 00:18:32;;;;;;;13.27;10.15;;;;;;;10.86;100.00;100869.91;5066525;28;20028;-75
2023/08/30 00:20:58;;;;;;;13.43;10.88;;;;;;;10.86;100.00;100866.47;5068630;28;20067;-75
2023/08/30 00:23:24;;;;;;;13.40;10.15;;;;;;;10.74;100.00;100849.34;5066593;28;20040;-75
2023/08/30 00:25:49;;;;;;;14.30;11.52;;;;;;;10.83;100.00;100861.31;5065869;28;20021;-75
2023/08/30 00:28:14;;;;;;;13.07;10.73;;;;;;;10.86;100.00;100856.88;5065514;28;20391;-75
2023/08/30 00:30:40;;;;;;;15.65;10.57;;;;;;;10.83;100.00;100856.09;5064701;28;20028;-75
2023/08/30 00:33:05;;;;;;;13.50;10.13;;;;;;;10.89;100.00;100854.19;5058379;28;20033;-75
2023/08/30 00:35:31;;;;;;;15.82;10.60;;;;;;;10.85;100.00;100852.53;5061930;28;20033;-75
2023/08/30 00:37:56;;;;;;;15.68;11.05;;;;;;;10.83;100.00;100862.16;5064938;28;20032;-75
2023/08/30 00:40:26;;;;;;;12.85;9.90;;;;;;;10.81;100.00;100853.50;5069055;28;20033;-75
2023/08/30 00:42:51;;;;;;;13.45;10.60;;;;;;;10.77;100.00;100850.13;5063080;28;20021;-75
2023/08/30 00:45:17;;;;;;;14.38;10.68;;;;;;;10.80;100.00;100845.72;5066178;28;20021;-75
2023/08/30 00:47:42;;;;;;;13.70;10.52;;;;;;;10.74;100.00;100839.75;5063883;28;20044;-75
2023/08/30 00:50:09;;;;;;;13.68;10.65;;;;;;;10.73;100.00;100834.59;5064714;28;20037;-75
2023/08/30 00:52:34;;;;;;;14.77;10.20;;;;;;;10.64;100.00;100819.16;5065713;28;20036;-75
2023/08/30 00:55:00;;;;;;;14.02;10.45;;;;;;;10.67;100.00;100826.91;5063132;28;20415;-75
2023/08/30 00:57:25;;;;;;;15.15;10.35;;;;;;;10.63;100.00;100823.53;5070635;28;20032;-75
2023/08/30 00:59:53;;;;;;;12.32;10.25;;;;;;;10.62;100.00;100824.41;5061765;28;20108;-75
2023/08/30 01:02:18;;;;;;;14.52;10.73;;;;;;;10.64;100.00;100827.00;5069130;28;20114;-75
2023/08/30 01:04:45;;;;;;;12.85;9.95;;;;;;;10.59;100.00;100823.63;5054223;28;20078;-75
2023/08/30 01:07:10;;;;;;;11.77;10.45;;;;;;;10.54;100.00;100832.41;5070430;28;20111;-75
2023/08/30 01:09:36;;;;;;;14.60;10.13;;;;;;;10.51;100.00;100822.06;5061219;28;20531;-75
2023/08/30 01:12:12;;;;;;;16.02;10.85;;;;;;;10.53;100.00;100835.94;5067873;28;20030;-75
2023/08/30 01:14:43;;;;;;;15.02;10.32;;;;;;;10.47;100.00;100825.63;5062885;28;20060;-75
2023/08/30 01:17:14;;;;;;;14.60;10.40;;;;;;;10.48;100.00;100821.28;5067609;28;20033;-75
2023/08/30 01:19:56;;;;;;;13.02;10.52;;;;;;;10.31;100.00;100811.25;5062365;28;20052;-75
2023/08/30 01:22:31;;;;;;;14.52;10.20;;;;;;;10.39;100.00;100830.16;5069199;28;20504;-75
2023/08/30 01:25:23;;;;;;;16.50;10.38;;;;;;;10.32;100.00;100813.81;5063275;28;20017;-75
2023/08/30 01:27:51;;;;;;;12.55;10.02;;;;;;;10.29;100.00;100819.09;5069405;28;20047;-75
2023/08/30 01:30:19;;;;;;;14.15;10.40;;;;;;;10.25;100.00;100817.41;5061928;28;20083;-75
2023/08/30 01:32:46;;;;;;;19.55;11.32;;;;;;;10.22;100.00;100808.81;5068710;28;20032;-75
2023/08/30 01:35:17;;;;;;;14.35;10.02;;;;;;;10.23;100.00;100815.72;5062023;28;20094;-75
2023/08/30 01:37:44;;;;;;;13.27;10.40;;;;;;;10.21;100.00;100809.72;5061034;28;20052;-75
2023/08/30 01:40:11;;;;;;;13.00;9.73;;;;;;;10.15;100.00;100805.50;5067536;28;20058;-75
2023/08/30 01:42:39;;;;;;;13.38;10.15;;;;;;;10.15;100.00;100818.50;5061463;28;20112;-75
2023/08/30 01:45:08;;;;;;;12.32;9.65;;;;;;;10.16;100.00;100807.19;5064252;28;20385;-75
2023/08/30 01:47:35;;;;;;;12.65;9.68;;;;;;;10.12;100.00;100804.69;5061696;28;20404;-75
2023/08/30 01:50:01;;;;;;;12.13;9.75;;;;;;;10.12;100.00;100812.50;5068033;28;20120;-75
2023/08/30 01:52:27;;;;;;;12.48;9.63;;;;;;;10.11;100.00;100810.81;5060727;28;20036;-75
2023/08/30 01:54:55;;;;;;;12.85;9.25;;;;;;;10.03;100.00;100806.59;5067460;28;20036;-75
2023/08/30 01:57:21;;;;;;;12.93;9.80;;;;;;;10.07;100.00;100805.66;5061776;28;20028;-75
2023/08/30 01:59:46;;;;;;;12.52;9.50;;;;;;;10.05;100.00;100803.97;5065280;28;20074;-75
2023/08/30 02:02:11;;;;;;;13.45;9.77;;;;;;;10.04;100.00;100813.53;5063533;28;20033;-75
2023/08/30 02:04:37;;;;;;;11.40;9.43;;;;;;;10.05;100.00;100811.78;5064114;28;20379;-75
2023/08/30 02:07:14;;;;;;;11.93;9.70;;;;;;;10.06;100.00;100810.91;5063974;28;20032;-75
2023/08/30 02:09:48;;;;;;;14.35;9.85;;;;;;;10.00;100.00;100811.03;5061993;28;20476;-75
2023/08/30 02:12:15;;;;;;;11.98;9.25;;;;;;;9.95;100.00;100810.28;5064401;28;20052;-75
2023/08/30 02:14:47;;;;;;;12.88;9.23;;;;;;;9.99;100.00;100814.53;5061257;28;20029;-75
2023/08/30 02:17:14;;;;;;;13.55;10.00;;;;;;;10.01;100.00;100808.41;5064565;28;20029;-75
2023/08/30 02:19:39;;;;;;;11.05;9.57;;;;;;;10.01;100.00;100800.59;5062832;28;20036;-75
2023/08/30 02:22:05;;;;;;;13.82;9.18;;;;;;;10.08;100.00;100802.16;5063973;28;20033;-75
2023/08/30 02:24:30;;;;;;;12.15;9.32;;;;;;;10.13;100.00;100794.22;5062709;28;20036;-75
2023/08/30 02:26:56;;;;;;;9.93;8.80;;;;;;;10.22;100.00;100793.19;5063333;28;20020;-75
2023/08/30 02:29:21;;;;;;;11.85;9.20;;;;;;;10.28;100.00;100787.88;5063327;28;20029;-75
2023/08/30 02:31:46;;;;;;;13.00;9.90;;;;;;;10.35;100.00;100781.63;5062977;28;20115;-75
2023/08/30 02:34:11;;;;;;;12.43;9.75;;;;;;;10.39;100.00;100783.25;5063197;28;20024;-75
2023/08/30 02:36:37;;;;;;;12.70;10.05;;;;;;;10.42;100.00;100777.97;5063915;28;20032;-75
2023/08/30 02:39:03;;;;;;;15.23;10.40;;;;;;;10.44;100.00;100776.19;5061225;28;20066;-75
2023/08/30 02:41:28;;;;;;;12.63;9.73;;;;;;;10.51;100.00;100777.75;5063229;28;20036;-75
2023/08/30 02:43:54;;;;;;;14.95;10.90;;;;;;;10.61;100.00;100785.34;5061537;28;20033;-75
2023/08/30 02:46:19;;;;;;;12.82;10.73;;;;;;;10.67;100.00;100785.22;5067622;28;20031;-75
2023/08/30 02:48:44;;;;;;;13.98;10.40;;;;;;;10.73;100.00;100777.22;5057788;28;20041;-75
2023/08/30 02:51:09;;;;;;;14.73;10.60;;;;;;;10.78;100.00;100772.75;5059871;28;20061;-75
2023/08/30 02:53:35;;;;;;;14.13;11.45;;;;;;;10.86;100.00;100772.56;5063879;28;20111;-75
2023/08/30 02:56:00;;;;;;;13.52;11.25;;;;;;;10.93;100.00;100766.28;5060561;28;20036;-75
2023/08/30 02:58:25;;;;;;;14.90;10.57;;;;;;;10.95;100.00;100767.97;5063974;28;20422;-75
2023/08/30 03:00:51;;;;;;;15.43;11.48;;;;;;;11.01;100.00;100765.16;5061431;28;20430;-75
2023/08/30 03:03:16;;;;;;;19.38;13.10;;;;;;;11.00;100.00;100763.47;5056785;28;20040;-75
2023/08/30 03:05:41;;;;;;;17.58;12.52;;;;;;;11.02;100.00;100759.09;5056667;28;20028;-75
2023/08/30 03:08:07;;;;;;;17.65;12.35;;;;;;;11.07;100.00;100758.09;5060510;28;20032;-75
2023/08/30 03:10:32;;;;;;;17.25;13.15;;;;;;;11.03;100.00;100759.94;5064053;28;20032;-75
2023/08/30 03:12:57;;;;;;;21.73;13.07;;;;;;;11.09;100.00;100758.91;5060106;28;20053;-75
2023/08/30 03:15:22;;;;;;;19.27;13.70;;;;;;;11.10;100.00;100766.69;5057002;28;20074;-75
2023/08/30 03:17:48;;;;;;;16.20;12.48;;;;;;;11.13;100.00;100760.53;5061471;28;20653;-75
2023/08/30 03:20:13;;;;;;;18.10;13.23;;;;;;;11.15;100.00;100756.13;5060046;28;20441;-75
2023/08/30 03:22:39;;;;;;;16.67;12.48;;;;;;;11.13;100.00;100752.72;5065602;28;20480;-75
2023/08/30 03:25:05;;;;;;;16.05;12.82;;;;;;;11.14;100.00;100757.88;5061083;28;20036;-75
2023/08/30 03:27:32;;;;;;;19.98;13.27;;;;;;;11.14;100.00;100750.03;5066713;28;20032;-75
2023/08/30 03:29:58;;;;;;;17.73;13.13;;;;;;;11.17;100.00;100743.91;5055187;28;20029;-75
2023/08/30 03:32:23;;;;;;;19.23;13.35;;;;;;;11.17;100.00;100730.84;5066751;28;20051;-75
2023/08/30 03:34:48;;;;;;;15.07;12.05;;;;;;;11.15;100.00;100730.03;5064303;28;20020;-75
2023/08/30 03:37:14;;;;;;;18.05;12.45;;;;;;;11.22;100.00;100731.59;5057096;28;20033;-75
2023/08/30 03:39:39;;;;;;;16.33;12.13;;;;;;;11.25;100.00;100727.13;5063846;28;20029;-75
2023/08/30 03:42:05;;;;;;;15.02;12.65;;;;;;;11.30;100.00;100719.16;5064669;28;20031;-75
2023/08/30 03:44:30;;;;;;;19.20;13.13;;;;;;;11.31;100.00;100704.38;5067516;28;20039;-75
2023/08/30 03:46:56;;;;;;;18.17;13.00;;;;;;;11.33;100.00;100708.66;5063980;28;20035;-75
2023/08/30 03:49:22;;;;;;;17.70;13.55;;;;;;;11.38;100.00;100698.94;5061985;28;20517;-75
2023/08/30 03:51:48;;;;;;;18.33;13.13;;;;;;;11.32;100.00;100673.00;5066075;28;20025;-74
2023/08/30 03:54:16;;;;;;;17.40;13.48;;;;;;;11.47;100.00;100687.34;5065260;28;20047;-75
2023/08/30 03:56:44;;;;;;;17.23;13.10;;;;;;;11.48;100.00;100689.94;5061276;28;20049;-75
2023/08/30 03:59:10;;;;;;;16.40;12.75;;;;;;;11.46;100.00;100678.66;5064294;28;20486;-75
2023/08/30 04:01:35;;;;;;;17.20;12.95;;;;;;;11.41;100.00;100674.47;5066811;28;20048;-75
2023/08/30 04:04:00;;;;;;;19.52;13.68;;;;;;;11.28;100.00;100670.53;5065992;28;20107;-75
2023/08/30 04:06:26;;;;;;;18.35;14.38;;;;;;;11.18;100.00;100665.59;5063129;28;20029;-75
2023/08/30 04:08:51;;;;;;;18.33;14.15;;;;;;;11.10;100.00;100672.75;5062469;28;20055;-75
2023/08/30 04:11:16;;;;;;;18.02;13.70;;;;;;;10.99;100.00;100659.19;5065352;28;20094;-75
2023/08/30 04:13:42;;;;;;;19.40;14.00;;;;;;;10.90;100.00;100647.25;5066045;28;20025;-75
2023/08/30 04:16:07;;;;;;;20.23;15.25;;;;;;;10.85;100.00;100654.31;5066808;28;20078;-75
2023/08/30 04:18:32;;;;;;;20.77;15.35;;;;;;;10.75;100.00;100652.88;5064942;28;20079;-75
2023/08/30 04:20:58;;;;;;;19.85;15.52;;;;;;;10.77;100.00;100666.72;5068099;28;20036;-75
2023/08/30 04:23:23;;;;;;;22.38;16.15;;;;;;;10.70;100.00;100652.16;5063421;28;20025;-75
2023/08/30 04:25:49;;;;;;;20.15;15.32;;;;;;;10.80;100.00;100660.59;5070691;28;20025;-75
2023/08/30 04:28:14;;;;;;;18.67;15.43;;;;;;;10.90;100.00;100662.91;5062747;28;20021;-75
2023/08/30 04:30:39;;;;;;;22.73;15.88;;;;;;;10.98;100.00;100655.69;5067149;28;20388;-75
2023/08/30 04:33:05;;;;;;;20.50;15.38;;;;;;;10.99;100.00;100649.59;5065919;28;20423;-75
2023/08/30 04:35:31;;;;;;;22.58;16.30;;;;;;;10.82;100.00;100604.00;5066569;28;20102;-75
2023/08/30 04:38:01;;;;;;;22.73;15.82;;;;;;;11.15;100.00;100654.34;5073707;28;20078;-75
2023/08/30 04:40:27;;;;;;;20.98;15.55;;;;;;;11.15;100.00;100636.09;5071645;28;20070;-75
2023/08/30 04:42:52;;;;;;;18.73;15.45;;;;;;;11.28;100.00;100653.13;5073257;28;20028;-75
2023/08/30 04:45:17;;;;;;;19.60;15.55;;;;;;;11.30;100.00;100651.31;5068474;28;20025;-75
2023/08/30 04:47:45;;;;;;;19.60;14.75;;;;;;;11.37;100.00;100644.16;5066612;28;20045;-75
2023/08/30 04:50:10;;;;;;;20.35;15.50;;;;;;;11.39;100.00;100643.22;5066911;28;20517;-75
2023/08/30 04:52:36;;;;;;;20.40;15.85;;;;;;;11.37;100.00;100625.88;5073162;28;20032;-75
2023/08/30 04:55:01;;;;;;;18.33;14.38;;;;;;;11.48;100.00;100637.72;5072941;28;20028;-75
2023/08/30 04:57:27;;;;;;;20.60;15.50;;;;;;;11.50;100.00;100635.06;5060186;28;20116;-75
2023/08/30 04:59:52;;;;;;;20.65;14.50;;;;;;;11.57;100.00;100638.31;5061936;28;20032;-75
2023/08/30 05:02:18;;;;;;;20.70;15.45;;;;;;;11.61;100.00;100629.53;5064480;28;20028;-75
2023/08/30 05:04:43;;;;;;;18.15;14.27;;;;;;;11.60;100.00;100618.19;5073970;28;20471;-75
2023/08/30 05:07:09;;;;;;;17.58;14.70;;;;;;;11.65;100.00;100620.69;5067611;28;20388;-75
2023/08/30 05:09:34;;;;;;;19.58;14.48;;;;;;;11.73;100.00;100629.13;5073020;28;20052;-75
2023/08/30 05:12:00;;;;;;;16.77;14.13;;;;;;;11.76;100.00;100623.81;5067633;28;20419;-75
2023/08/30 05:14:25;;;;;;;21.65;14.15;;;;;;;11.69;100.00;100610.09;5072364;28;20029;-75
2023/08/30 05:16:51;;;;;;;21.88;14.88;;;;;;;11.80;100.00;100625.41;5068759;28;20021;-75
2023/08/30 05:19:16;;;;;;;22.83;15.23;;;;;;;11.82;100.00;100604.47;5072145;28;20054;-75
2023/08/30 05:21:42;;;;;;;20.33;14.63;;;;;;;11.88;100.00;100605.16;5065948;28;20070;-75
2023/08/30 05:24:08;;;;;;;20.40;14.80;;;;;;;11.97;100.00;100609.25;5068887;28;20052;-75
2023/08/30 05:26:33;;;;;;;22.52;15.10;;;;;;;12.01;100.00;100597.78;5068973;28;20648;-75
2023/08/30 05:28:59;;;;;;;16.63;14.20;;;;;;;12.08;100.00;100608.88;5071624;28;20038;-75
2023/08/30 05:31:24;;;;;;;21.80;14.88;;;;;;;12.15;100.00;100610.38;5068040;28;20025;-75
2023/08/30 05:33:50;;;;;;;18.13;14.93;;;;;;;12.21;100.00;100610.16;5068504;28;20029;-75
2023/08/30 05:36:15;;;;;;;17.80;14.70;;;;;;;12.24;100.00;100604.84;5064973;28;20112;-75
2023/08/30 05:38:41;;;;;;;20.08;15.52;;;;;;;12.28;100.00;100589.91;5056108;28;20040;-75
2023/08/30 05:41:07;;;;;;;18.88;14.63;;;;;;;12.33;100.00;100598.47;5065169;28;20012;-75
2023/08/30 05:43:32;;;;;;;18.13;14.73;;;;;;;12.34;100.00;100587.94;5063902;28;20025;-75
2023/08/30 05:46:02;;;;;;;21.05;15.05;;;;;;;12.43;100.00;100593.75;5062907;28;20029;-75
2023/08/30 05:48:27;;;;;;;20.98;14.88;;;;;;;12.50;100.00;100597.88;5064377;28;20067;-75
2023/08/30 05:50:52;;;;;;;20.25;14.63;;;;;;;12.55;100.00;100588.06;5062349;28;20380;-75
2023/08/30 05:53:18;;;;;;;19.30;14.23;;;;;;;12.61;100.00;100582.63;5065062;28;20086;-75
2023/08/30 05:55:43;;;;;;;19.15;14.23;;;;;;;12.66;100.00;100585.94;5064856;28;20079;-75
2023/08/30 05:58:08;;;;;;;19.90;14.60;;;;;;;12.72;100.00;100579.63;5062231;28;20025;-75
2023/08/30 06:00:34;;;;;;;20.67;14.40;;;;;;;12.76;100.00;100570.78;5067083;28;20016;-75
2023/08/30 06:02:59;;;;;;;17.30;13.73;;;;;;;12.80;100.00;100567.97;5061315;28;20017;-75
2023/08/30 06:05:24;;;;;;;15.45;12.95;;;;;;;12.88;100.00;100576.41;5067415;28;20036;-75
2023/08/30 06:07:49;;;;;;;15.23;13.43;;;;;;;12.91;100.00;100569.34;5060825;28;20108;-75
2023/08/30 06:10:15;;;;;;;16.92;12.73;;;;;;;12.95;100.00;100576.16;5065720;28;20075;-75
2023/08/30 06:12:40;;;;;;;17.73;13.35;;;;;;;12.95;100.00;100577.03;5059895;28;20017;-75
2023/08/30 06:15:06;;;;;;;15.98;13.18;;;;;;;12.96;100.00;100575.25;5067372;28;20036;-75
2023/08/30 06:17:31;;;;;;;15.93;12.88;;;;;;;12.93;100.00;100570.16;5055895;28;20021;-75
2023/08/30 06:19:57;;;;;;;17.02;13.32;;;;;;;12.98;100.00;100569.06;5058523;28;20086;-75
2023/08/30 06:22:22;;;;;;;18.05;13.15;;;;;;;12.97;100.00;100563.88;5065617;28;20028;-75
2023/08/30 06:24:48;;;;;;;15.00;12.45;;;;;;;12.99;100.00;100562.91;5060346;28;20029;-75
2023/08/30 06:27:13;;;;;;;16.77;12.65;;;;;;;12.96;100.00;100559.56;5054760;28;20148;-74
2023/08/30 06:29:38;;;;;;;14.85;12.95;;;;;;;13.00;100.00;100563.75;5054140;28;20171;-74
2023/08/30 06:32:05;;;;;;;14.77;12.02;;;;;;;13.01;100.00;100555.84;5064003;28;20071;-74
2023/08/30 06:34:30;;;;;;;16.85;12.43;;;;;;;13.04;100.00;100558.34;5055598;28;20388;-74
2023/08/30 06:36:55;;;;;;;15.55;12.15;;;;;;;13.05;100.00;100560.06;5063354;28;20029;-74
2023/08/30 06:39:21;;;;;;;17.40;12.38;;;;;;;13.06;100.00;100579.25;5053469;28;20033;-74
2023/08/30 06:41:46;;;;;;;19.20;13.02;;;;;;;12.94;100.00;100577.91;5055089;28;20419;-75
2023/08/30 06:44:11;;;;;;;17.98;13.15;;;;;;;12.89;100.00;100575.50;5055475;28;20016;-75
2023/08/30 06:46:37;;;;;;;20.20;13.57;;;;;;;12.82;100.00;100571.41;5057083;28;20032;-75
2023/08/30 06:49:03;;;;;;;17.35;13.95;;;;;;;12.77;100.00;100568.09;5059105;28;20051;-75
2023/08/30 06:51:29;;;;;;;19.60;14.57;;;;;;;12.72;100.00;100579.63;5063949;28;20082;-75
2023/08/30 06:53:55;;;;;;;20.52;14.40;;;;;;;12.64;100.00;100577.28;5055931;28;20025;-75
2023/08/30 06:56:20;;;;;;;21.67;15.10;;;;;;;12.58;100.00;100590.59;5055733;28;20109;-75
2023/08/30 06:58:46;;;;;;;22.13;14.43;;;;;;;12.52;100.00;100585.56;5056224;28;20139;-76
2023/08/30 07:01:12;;;;;;;22.88;17.20;;;;;;;12.49;100.00;100589.16;5056428;28;20028;-77
2023/08/30 07:03:37;;;;;;;23.40;17.13;;;;;;;12.40;100.00;100582.50;5063422;28;20175;-78
2023/08/30 07:06:02;;;;;;;29.17;17.23;;;;;;;12.45;100.00;100586.69;5062465;28;20022;-77
2023/08/30 07:08:28;;;;;;;28.85;17.35;;;;;;;12.41;100.00;100578.97;5062378;28;20082;-76
2023/08/30 07:10:53;;;;;;;26.60;18.75;;;;;;;12.44;100.00;100569.31;5064646;28;20025;-77
2023/08/30 07:13:18;;;;;;;26.45;18.38;;;;;;;12.43;100.00;100557.16;5061263;28;20025;-77
2023/08/30 07:15:44;;;;;;;36.63;18.60;;;;;;;12.38;100.00;100550.31;5065846;28;20032;-76
2023/08/30 07:18:09;;;;;;;27.98;17.85;;;;;;;12.37;100.00;100548.63;5060198;28;20044;-76
2023/08/30 07:20:38;;;;;;;30.05;17.48;;;;;;;12.35;100.00;100541.72;5067430;28;20033;-77
2023/08/30 07:23:04;;;;;;;26.45;18.00;;;;;;;12.27;100.00;100528.94;5059493;28;20060;-76
2023/08/30 07:25:33;;;;;;;24.75;16.38;;;;;;;12.34;100.00;100534.81;5068025;28;20024;-76
2023/08/30 07:27:59;;;;;;;25.55;16.05;;;;;;;12.29;100.00;100527.09;5060122;28;20043;-77
2023/08/30 07:30:25;;;;;;;27.52;16.38;;;;;;;12.33;100.00;100536.56;5066590;28;20083;-77
2023/08/30 07:32:50;;;;;;;26.85;15.27;;;;;;;12.25;100.00;100533.34;5060646;28;20028;-77
2023/08/30 07:35:16;;;;;;;29.92;15.80;;;;;;;12.28;100.00;100528.03;5060040;28;20108;-77
2023/08/30 07:37:41;;;;;;;25.40;14.95;;;;;;;12.30;100.00;100526.22;5060019;28;20025;-77
2023/08/30 07:40:07;;;;;;;23.00;14.13;;;;;;;12.34;100.00;100525.19;5061494;28;20057;-77
2023/08/30 07:42:32;;;;;;;23.70;14.75;;;;;;;12.37;100.00;100522.47;5060140;28;20021;-77
2023/08/30 07:44:58;;;;;;;29.45;15.82;;;;;;;12.43;100.00;100521.41;5065948;28;20020;-77
2023/08/30 07:47:23;;;;;;;25.33;15.32;;;;;;;12.38;100.00;100515.47;5059926;28;20040;-77
2023/08/30 07:49:48;;;;;;;23.23;14.77;;;;;;;12.44;100.00;100530.94;5066567;28;20071;-77
2023/08/30 07:52:14;;;;;;;23.55;13.43;;;;;;;12.45;100.00;100519.56;5059585;28;20365;-77
2023/08/30 07:54:40;;;;;;;23.67;14.55;;;;;;;12.46;100.00;100515.19;5057994;28;20475;-77
2023/08/30 07:57:07;;;;;;;23.30;13.82;;;;;;;12.50;100.00;100519.44;5061457;28;20107;-77
2023/08/30 07:59:36;;;;;;;22.50;14.48;;;;;;;12.50;100.00;100517.66;5062396;28;20478;-77
2023/08/30 08:02:03;;;;;;;20.55;13.35;;;;;;;12.49;100.00;100513.34;5062991;28;20021;-77
2023/08/30 08:04:28;;;;;;;21.02;14.13;;;;;;;12.53;100.00;100512.31;5062293;28;20013;-77
2023/08/30 08:06:54;;;;;;;22.45;13.45;;;;;;;12.50;100.00;100496.75;5063081;28;20078;-78
2023/08/30 08:09:21;;;;;;;21.88;12.93;;;;;;;12.46;100.00;100521.31;5064461;28;20063;-77
2023/08/30 08:11:48;;;;;;;18.27;12.52;;;;;;;12.52;100.00;100517.59;5065763;28;20032;-77
2023/08/30 08:14:13;;;;;;;25.05;13.68;;;;;;;12.57;100.00;100518.28;5065506;28;20024;-77
2023/08/30 08:16:38;;;;;;;19.05;13.05;;;;;;;12.58;100.00;100515.59;5066237;28;20020;-77
2023/08/30 08:19:04;;;;;;;21.13;12.98;;;;;;;12.55;100.00;100518.31;5065842;28;20033;-78
2023/08/30 08:21:29;;;;;;;21.67;12.77;;;;;;;12.55;100.00;100509.63;5065398;28;20039;-77
2023/08/30 08:23:54;;;;;;;20.83;12.05;;;;;;;12.59;100.00;100522.56;5066492;28;20029;-77
2023/08/30 08:26:20;;;;;;;21.02;12.70;;;;;;;12.66;100.00;100525.78;5065704;28;20086;-77
2023/08/30 08:28:45;;;;;;;20.73;12.68;;;;;;;12.68;100.00;100531.81;5065555;28;20431;-77
2023/08/30 08:31:10;;;;;;;20.10;12.38;;;;;;;12.73;100.00;100521.19;5068745;28;20423;-77
2023/08/30 08:33:36;;;;;;;17.13;11.93;;;;;;;12.75;100.00;100525.47;5062751;28;20472;-77
2023/08/30 08:36:01;;;;;;;18.38;12.35;;;;;;;12.77;100.00;100525.38;5066478;28;20024;-77
2023/08/30 08:38:27;;;;;;;17.73;12.18;;;;;;;12.78;100.00;100527.94;5061732;28;20384;-77
2023/08/30 08:41:01;;;;;;;16.77;11.32;;;;;;;12.79;100.00;100519.19;5064027;28;20064;-77
2023/08/30 08:43:28;;;;;;;16.30;10.57;;;;;;;12.82;100.00;100516.47;5066071;28;20033;-77
2023/08/30 08:45:59;;;;;;;15.25;10.85;;;;;;;12.87;100.00;100519.75;5062423;28;20033;-77
2023/08/30 08:48:28;;;;;;;15.45;10.10;;;;;;;12.93;100.00;100517.81;5065199;28;20041;-77
2023/08/30 08:50:53;;;;;;;17.90;10.75;;;;;;;12.93;100.00;100517.81;5063960;28;20039;-77
2023/08/30 08:53:19;;;;;;;17.50;10.13;;;;;;;12.94;100.00;100514.28;5066017;28;20024;-77
2023/08/30 08:55:46;;;;;;;14.55;9.93;;;;;;;12.90;100.00;100518.78;5064903;28;20048;-77
2023/08/30 08:58:12;;;;;;;12.43;9.13;;;;;;;12.89;100.00;100524.94;5064928;28;20396;-76
2023/08/30 09:00:38;;;;;;;15.95;9.55;;;;;;;12.89;100.00;100517.09;5067398;28;20427;-77
2023/08/30 09:03:05;;;;;;;15.30;10.15;;;;;;;13.04;100.00;100529.56;5062608;28;20055;-77
2023/08/30 09:05:31;;;;;;;15.90;9.80;;;;;;;13.22;100.00;100528.00;5069256;28;20025;-76
2023/08/30 09:07:57;;;;;;;19.15;10.88;;;;;;;13.33;100.00;100525.00;5053402;28;20102;-76
2023/08/30 09:10:23;;;;;;;15.07;10.40;;;;;;;13.38;100.00;100512.56;5056096;28;20028;-76
2023/08/30 09:12:48;;;;;;;17.95;10.38;;;;;;;13.55;100.00;100524.97;5052632;28;20090;-76
2023/08/30 09:15:15;;;;;;;16.70;10.93;;;;;;;13.68;100.00;100523.56;5045997;28;20159;-76
2023/08/30 09:17:41;;;;;;;16.58;10.85;;;;;;;13.90;100.00;100512.19;5056648;28;20107;-76
2023/08/30 09:20:11;;;;;;;15.63;11.73;;;;;;;14.06;100.00;100515.88;5065433;28;20052;-77
2023/08/30 09:22:41;;;;;;;14.63;10.13;;;;;;;14.13;100.00;100508.59;5058137;28;20032;-76
2023/08/30 09:25:09;;;;;;;13.45;10.75;;;;;;;14.11;100.00;100510.41;5062577;28;20124;-76
2023/08/30 09:27:35;;;;;;;14.25;9.95;;;;;;;14.09;100.00;100515.72;5053457;28;20358;-76
2023/08/30 09:30:01;;;;;;;12.65;9.50;;;;;;;14.13;100.00;100519.91;5053028;28;20041;-76
2023/08/30 09:32:26;;;;;;;13.05;9.73;;;;;;;14.15;100.00;100512.81;5057961;28;20025;-76
2023/08/30 09:34:51;;;;;;;12.30;8.85;;;;;;;14.20;100.00;100516.09;5052782;28;20881;-76
2023/08/30 09:37:21;;;;;;;12.30;9.05;;;;;;;14.19;100.00;100510.91;5043401;28;20064;-76
2023/08/30 09:39:52;;;;;;;11.80;9.45;;;;;;;14.31;100.00;100520.03;5054667;28;20484;-76
2023/08/30 09:42:18;;;;;;;13.90;10.02;;;;;;;14.42;100.00;100517.75;5058695;28;20025;-76
2023/08/30 09:44:44;;;;;;;11.07;9.27;;;;;;;14.48;100.00;100517.50;5065507;28;20069;-76
2023/08/30 09:47:09;;;;;;;12.43;10.18;;;;;;;14.56;100.00;100512.81;5060937;28;20047;-77
2023/08/30 09:49:45;;;;;;;13.60;9.85;;;;;;;14.74;100.00;100518.97;5066786;28;20024;-76
2023/08/30 09:52:12;;;;;;;14.88;11.10;;;;;;;14.85;100.00;100521.97;5060737;28;20405;-76
2023/08/30 09:54:41;;;;;;;12.88;10.55;;;;;;;15.05;100.00;100518.41;5066662;28;20039;-76
2023/08/30 09:57:07;;;;;;;15.07;11.82;;;;;;;15.28;100.00;100511.22;5061843;28;20545;-75
2023/08/30 09:59:32;;;;;;;13.18;11.15;;;;;;;15.46;100.00;100508.53;5065018;28;20032;-76
2023/08/30 10:02:00;;;;;;;12.88;11.00;;;;;;;15.46;100.00;100515.56;5064659;28;20016;-76
2023/08/30 10:04:27;;;;;;;11.80;10.43;;;;;;;15.43;100.00;100502.56;5061475;28;20075;-76
2023/08/30 10:06:54;;;;;;;12.27;10.98;;;;;;;15.46;100.00;100500.66;5064709;28;20031;-76
2023/08/30 10:09:20;;;;;;;13.13;11.73;;;;;;;15.42;100.00;100496.47;5063470;28;20037;-76
2023/08/30 10:11:47;;;;;;;13.07;11.73;;;;;;;15.36;100.00;100493.31;5063361;28;20017;-76
2023/08/30 10:14:13;;;;;;;14.50;12.25;;;;;;;15.46;100.00;100494.56;5063287;28;20547;-76
2023/08/30 10:16:47;;;;;;;14.88;12.65;;;;;;;15.61;100.00;100490.31;5064009;28;20052;-76
2023/08/30 10:19:19;;;;;;;14.38;12.50;;;;;;;15.60;100.00;100493.88;5063277;28;20037;-76
2023/08/30 10:21:44;;;;;;;14.00;12.52;;;;;;;15.61;100.00;100485.06;5053253;28;20031;-76
2023/08/30 10:24:14;;;;;;;14.75;13.02;;;;;;;15.67;100.00;100490.91;5064321;28;20383;-76
2023/08/30 10:26:42;;;;;;;15.13;13.55;;;;;;;15.82;100.00;100493.69;5062700;28;20035;-76
2023/08/30 10:29:10;;;;;;;14.57;13.00;;;;;;;16.08;100.00;100484.44;5064486;28;20039;-76
2023/08/30 10:31:38;;;;;;;15.60;13.55;;;;;;;16.32;100.00;100474.44;5062757;28;20028;-76
2023/08/30 10:34:13;;;;;;;14.18;12.68;;;;;;;16.14;100.00;100476.25;5063153;28;20034;-76
2023/08/30 10:36:39;;;;;;;14.95;12.98;;;;;;;16.04;100.00;100483.75;5063068;28;20025;-76
2023/08/30 10:39:11;;;;;;;18.35;14.43;;;;;;;16.20;100.00;100488.22;5060222;28;20025;-76
2023/08/30 10:41:37;;;;;;;14.88;13.27;;;;;;;16.37;100.00;100475.03;5067119;28;20051;-76
2023/08/30 10:44:04;;;;;;;15.00;13.50;;;;;;;16.52;100.00;100478.63;5062139;28;20814;-76
2023/08/30 10:46:34;;;;;;;15.50;13.95;;;;;;;16.71;100.00;100468.81;5062810;28;20406;-76
2023/08/30 10:49:14;;;;;;;14.90;13.35;;;;;;;16.94;100.00;100475.47;5061883;28;20037;-76
2023/08/30 10:51:41;;;;;;;14.88;13.38;;;;;;;17.41;100.00;100478.97;5063906;28;20044;-76
2023/08/30 10:54:18;;;;;;;13.93;12.43;;;;;;;17.65;100.00;100466.16;5061832;28;20024;-76
2023/08/30 10:56:48;;;;;;;12.60;10.55;;;;;;;17.71;100.00;100469.25;5062062;28;20127;-76
2023/08/30 10:59:22;;;;;;;12.27;10.98;;;;;;;17.71;100.00;100463.16;5062634;28;20028;-76